createdAt,value
2023-12-09T00:00:39.592Z,120.70
2023-12-09T00:03:08.431Z,109.85
2023-12-09T00:05:35.908Z,104.63
2023-12-09T00:08:02.552Z,112.20
2023-12-09T00:10:29.223Z,102.18
2023-12-09T00:12:56.151Z,107.63
2023-12-09T00:15:22.817Z,104.70
2023-12-09T00:17:50.352Z,112.05
2023-12-09T00:20:16.878Z,105.80
2023-12-09T00:22:43.384Z,113.88
2023-12-09T00:25:10.534Z,101.55
2023-12-09T00:27:37.028Z,106.05
2023-12-09T00:30:03.844Z,109.57
2023-12-09T00:32:30.825Z,111.63
2023-12-09T00:34:57.742Z,105.75
2023-12-09T00:37:24.227Z,117.07
2023-12-09T00:39:51.036Z,118.20
2023-12-09T00:42:17.711Z,111.43
2023-12-09T00:44:44.367Z,111.47
2023-12-09T00:47:10.917Z,106.18
2023-12-09T00:49:37.591Z,113.78
2023-12-09T00:52:04.422Z,103.15
2023-12-09T00:54:31.004Z,114.10
2023-12-09T00:56:57.636Z,106.50
2023-12-09T00:59:24.164Z,100.50
2023-12-09T01:01:50.723Z,99.47
2023-12-09T01:04:17.419Z,109.82
2023-12-09T01:06:44.177Z,103.03
2023-12-09T01:09:10.794Z,98.18
2023-12-09T01:11:37.378Z,95.63
2023-12-09T01:14:03.875Z,89.57
2023-12-09T01:16:31.258Z,104.40
2023-12-09T01:18:58.065Z,99.68
2023-12-09T01:21:24.671Z,99.63
2023-12-09T01:23:51.267Z,94.07
2023-12-09T01:26:17.827Z,102.05
2023-12-09T01:28:45.197Z,95.70
2023-12-09T01:31:11.747Z,95.40
2023-12-09T01:33:39.288Z,100.60
2023-12-09T01:36:06.143Z,96.95
2023-12-09T01:38:32.753Z,101.63
2023-12-09T01:40:59.264Z,96.10
2023-12-09T01:43:26.571Z,92.15
2023-12-09T01:45:55.830Z,94.20
2023-12-09T01:48:23.617Z,86.78
2023-12-09T01:50:50.733Z,97.63
2023-12-09T01:53:17.542Z,92.38
2023-12-09T01:55:44.129Z,91.57
2023-12-09T01:58:11.826Z,90.57
2023-12-09T02:00:40.831Z,96.13
2023-12-09T02:03:07.656Z,99.40
2023-12-09T02:09:21.299Z,92.82
2023-12-09T02:12:14.541Z,97.90
2023-12-09T02:14:56.133Z,99.75
2023-12-09T02:20:15.594Z,98.20
2023-12-09T02:22:42.181Z,98.90
2023-12-09T02:25:09.253Z,99.43
2023-12-09T02:27:58.857Z,99.72
2023-12-09T02:30:42.230Z,101.75
2023-12-09T02:33:11.364Z,99.70
2023-12-09T02:35:41.381Z,104.65
2023-12-09T02:38:10.185Z,100.00
2023-12-09T02:40:37.670Z,102.15
2023-12-09T02:43:05.104Z,105.35
2023-12-09T02:45:31.741Z,101.55
2023-12-09T02:47:58.704Z,102.13
2023-12-09T02:50:25.276Z,103.38
2023-12-09T02:52:51.800Z,103.47
2023-12-09T02:55:18.699Z,105.25
2023-12-09T02:57:45.287Z,107.18
2023-12-09T03:00:12.415Z,106.45
2023-12-09T03:02:39.094Z,114.25
2023-12-09T03:05:05.887Z,111.15
2023-12-09T03:07:32.542Z,124.25
2023-12-09T03:09:59.084Z,119.22
2023-12-09T03:12:25.856Z,117.45
2023-12-09T03:14:54.101Z,128.55
2023-12-09T03:17:20.693Z,123.03
2023-12-09T03:19:47.347Z,122.70
2023-12-09T03:22:13.909Z,131.20
2023-12-09T03:24:43.672Z,130.93
2023-12-09T03:27:10.235Z,118.50
2023-12-09T03:29:37.525Z,128.95
2023-12-09T03:32:04.256Z,135.93
2023-12-09T03:34:31.078Z,131.65
2023-12-09T03:36:57.740Z,140.63
2023-12-09T03:39:24.411Z,133.65
2023-12-09T03:41:51.134Z,141.02
2023-12-09T03:44:17.834Z,147.15
2023-12-09T03:46:44.361Z,148.55
2023-12-09T03:49:11.051Z,139.07
2023-12-09T03:51:37.652Z,140.23
2023-12-09T03:54:05.171Z,152.32
2023-12-09T03:56:32.105Z,151.02
2023-12-09T03:58:58.610Z,149.88
2023-12-09T04:01:25.965Z,167.30
2023-12-09T04:03:53.122Z,157.35
2023-12-09T04:06:19.835Z,166.00
2023-12-09T04:08:46.359Z,163.77
2023-12-09T04:11:12.931Z,163.20
2023-12-09T04:13:41.516Z,157.57
2023-12-09T04:16:08.480Z,165.65
2023-12-09T04:18:35.605Z,166.65
2023-12-09T04:21:02.290Z,169.88
2023-12-09T04:23:28.866Z,174.93
2023-12-09T04:25:55.428Z,166.93
2023-12-09T04:28:22.016Z,173.95
2023-12-09T04:30:48.532Z,189.68
2023-12-09T04:33:15.124Z,188.23
2023-12-09T04:35:41.771Z,180.63
2023-12-09T04:38:08.476Z,185.95
2023-12-09T04:40:35.066Z,187.02
2023-12-09T04:43:01.590Z,190.45
2023-12-09T04:45:28.121Z,198.82
2023-12-09T04:47:54.858Z,192.80
2023-12-09T04:50:22.087Z,182.32
2023-12-09T04:52:48.595Z,181.65
2023-12-09T04:55:15.261Z,190.38
2023-12-09T04:57:44.166Z,196.52
2023-12-09T05:00:12.776Z,207.10
2023-12-09T05:02:39.448Z,198.40
2023-12-09T05:05:06.366Z,204.15
2023-12-09T05:07:33.962Z,219.63
2023-12-09T05:10:00.483Z,201.63
2023-12-09T05:12:28.116Z,216.30
2023-12-09T05:14:54.932Z,223.70
2023-12-09T05:17:21.424Z,205.25
2023-12-09T05:19:48.320Z,202.90
2023-12-09T05:22:16.029Z,241.10
2023-12-09T05:24:43.275Z,223.18
2023-12-09T05:27:09.872Z,220.30
2023-12-09T05:29:36.426Z,222.45
2023-12-09T05:32:04.120Z,220.90
2023-12-09T05:34:30.753Z,207.05
2023-12-09T05:36:57.274Z,211.43
2023-12-09T05:39:23.843Z,214.57
2023-12-09T05:41:50.571Z,211.05
2023-12-09T05:44:17.085Z,218.48
2023-12-09T05:46:43.583Z,185.73
2023-12-09T05:49:10.596Z,201.38
2023-12-09T05:51:38.135Z,192.30
2023-12-09T05:54:04.830Z,184.65
2023-12-09T05:56:31.465Z,199.38
2023-12-09T05:58:58.015Z,196.13
2023-12-09T06:01:24.550Z,190.18
2023-12-09T06:03:51.104Z,191.30
2023-12-09T06:06:17.918Z,182.82
2023-12-09T06:08:44.753Z,186.85
2023-12-09T06:11:11.698Z,189.70
2023-12-09T06:13:39.058Z,178.68
2023-12-09T06:16:05.757Z,199.60
2023-12-09T06:18:33.418Z,202.63
2023-12-09T06:21:00.012Z,190.48
2023-12-09T06:23:27.577Z,177.15
2023-12-09T06:25:54.185Z,182.43
2023-12-09T06:28:20.691Z,168.48
2023-12-09T06:30:47.351Z,171.30
2023-12-09T06:33:14.170Z,168.65
2023-12-09T06:35:40.740Z,169.07
2023-12-09T06:38:07.250Z,165.43
2023-12-09T06:40:33.829Z,171.82
2023-12-09T06:43:00.366Z,174.43
2023-12-09T06:45:27.295Z,174.55
2023-12-09T06:47:55.248Z,168.70
2023-12-09T06:50:22.460Z,165.63
2023-12-09T06:52:49.061Z,181.85
2023-12-09T06:55:15.642Z,177.77
2023-12-09T06:57:42.841Z,163.52
2023-12-09T07:00:09.886Z,163.60
2023-12-09T07:02:45.040Z,158.90
2023-12-09T07:05:20.054Z,154.02
2023-12-09T07:07:46.862Z,164.32
2023-12-09T07:10:13.351Z,149.77
2023-12-09T07:12:39.887Z,151.73
2023-12-09T07:15:07.784Z,157.30
2023-12-09T07:17:34.386Z,148.27
2023-12-09T07:20:01.007Z,149.75
2023-12-09T07:22:27.839Z,141.60
2023-12-09T07:24:54.566Z,154.93
2023-12-09T07:27:21.112Z,151.02
2023-12-09T07:29:47.665Z,136.80
2023-12-09T07:32:15.097Z,164.68
2023-12-09T07:34:41.717Z,142.82
2023-12-09T07:37:11.125Z,146.20
2023-12-09T07:39:43.718Z,135.15
2023-12-09T07:42:11.455Z,144.27
2023-12-09T07:44:38.047Z,132.30
2023-12-09T07:47:05.352Z,133.45
2023-12-09T07:49:32.232Z,121.65
2023-12-09T07:51:58.927Z,122.63
2023-12-09T07:54:25.568Z,125.80
2023-12-09T07:56:52.152Z,122.38
2023-12-09T07:59:18.679Z,118.35
2023-12-09T08:01:45.743Z,110.88
2023-12-09T08:04:13.821Z,107.95
2023-12-09T08:06:40.666Z,120.13
2023-12-09T08:09:08.391Z,117.75
2023-12-09T08:11:35.979Z,107.90
2023-12-09T08:14:02.645Z,103.28
2023-12-09T08:16:29.215Z,106.22
2023-12-09T08:18:55.925Z,104.63
2023-12-09T08:21:22.664Z,109.55
2023-12-09T08:23:49.260Z,96.13
2023-12-09T08:26:19.403Z,91.85
2023-12-09T08:28:46.716Z,94.00
2023-12-09T08:31:13.629Z,90.85
2023-12-09T08:33:41.218Z,85.75
2023-12-09T08:36:08.449Z,96.47
2023-12-09T08:38:35.445Z,81.15
2023-12-09T08:41:02.314Z,82.25
2023-12-09T08:43:28.976Z,82.65
2023-12-09T08:45:55.647Z,71.93
2023-12-09T08:48:22.374Z,78.22
2023-12-09T08:50:49.065Z,87.05
2023-12-09T08:53:15.623Z,86.75
2023-12-09T08:55:42.384Z,80.95
2023-12-09T08:58:09.097Z,70.03
2023-12-09T09:00:35.628Z,73.18
2023-12-09T09:03:04.549Z,69.20
2023-12-09T09:05:31.281Z,71.82
2023-12-09T09:07:58.634Z,76.30
2023-12-09T09:10:25.225Z,70.60
2023-12-09T09:12:51.764Z,75.13
2023-12-09T09:15:18.612Z,76.93
2023-12-09T09:17:45.241Z,77.13
2023-12-09T09:20:12.000Z,74.15
2023-12-09T09:22:39.008Z,70.88
2023-12-09T09:25:06.162Z,67.05
2023-12-09T09:27:33.028Z,72.15
2023-12-09T09:29:59.876Z,67.68
2023-12-09T09:32:26.778Z,68.32
2023-12-09T09:34:53.769Z,72.07
2023-12-09T09:37:21.275Z,72.75
2023-12-09T09:39:48.483Z,68.28
2023-12-09T09:42:21.117Z,67.35
2023-12-09T09:45:11.392Z,77.13
2023-12-09T09:47:38.464Z,60.53
2023-12-09T09:50:09.685Z,66.47
2023-12-09T09:52:37.930Z,74.90
2023-12-09T09:55:07.644Z,69.72
2023-12-09T09:57:35.374Z,64.90
2023-12-09T10:00:02.408Z,57.97
2023-12-09T10:02:29.718Z,61.47
2023-12-09T10:04:56.449Z,72.80
2023-12-09T10:07:23.746Z,62.42
2023-12-09T10:09:51.039Z,59.70
2023-12-09T10:12:17.627Z,59.00
2023-12-09T10:14:44.396Z,64.28
2023-12-09T10:17:12.297Z,60.25
2023-12-09T10:19:39.867Z,66.93
2023-12-09T10:22:06.455Z,63.10
2023-12-09T10:24:33.114Z,60.17
2023-12-09T10:27:01.195Z,60.03
2023-12-09T10:29:27.767Z,58.55
2023-12-09T10:31:54.367Z,55.15
2023-12-09T10:34:21.619Z,60.67
2023-12-09T10:36:48.347Z,56.72
2023-12-09T10:39:14.969Z,59.50
2023-12-09T10:41:46.719Z,61.42
2023-12-09T10:44:13.237Z,57.90
2023-12-09T10:46:39.932Z,50.60
2023-12-09T10:49:06.593Z,54.63
2023-12-09T10:51:33.406Z,59.50
2023-12-09T10:54:00.152Z,57.60
2023-12-09T10:56:27.743Z,52.33
2023-12-09T10:58:56.904Z,58.58
2023-12-09T11:01:24.020Z,53.70
2023-12-09T11:03:50.710Z,54.28
2023-12-09T11:06:21.217Z,55.90
2023-12-09T11:08:48.426Z,55.42
2023-12-09T11:11:17.812Z,54.45
2023-12-09T11:13:47.354Z,50.65
2023-12-09T11:16:22.150Z,49.28
2023-12-09T11:18:54.308Z,57.13
2023-12-09T11:21:23.436Z,48.05
2023-12-09T11:23:54.721Z,42.25
2023-12-09T11:26:32.157Z,47.80
2023-12-09T11:29:11.553Z,39.53
2023-12-09T11:31:40.150Z,42.25
2023-12-09T11:34:08.704Z,41.03
2023-12-09T11:36:37.939Z,41.10
2023-12-09T11:39:10.081Z,37.45
2023-12-09T11:41:41.536Z,36.45
2023-12-09T11:44:10.008Z,44.53
2023-12-09T11:46:37.264Z,37.05
2023-12-09T11:49:05.319Z,35.60
2023-12-09T11:51:34.871Z,37.00
2023-12-09T11:54:03.485Z,35.38
2023-12-09T11:56:31.050Z,34.03
2023-12-09T11:58:58.287Z,34.15
2023-12-09T12:01:26.325Z,41.20
2023-12-09T12:03:53.696Z,34.72
2023-12-09T12:06:23.245Z,40.53
2023-12-09T12:08:51.950Z,33.53
2023-12-09T12:11:23.136Z,31.80
2023-12-09T12:13:51.157Z,28.95
2023-12-09T12:16:17.957Z,31.65
2023-12-09T12:18:46.161Z,27.70
2023-12-09T12:21:12.946Z,33.67
2023-12-09T12:23:42.527Z,31.23
2023-12-09T12:26:14.778Z,30.30
2023-12-09T12:28:41.656Z,33.35
2023-12-09T12:31:11.881Z,30.35
2023-12-09T12:33:38.571Z,31.02
2023-12-09T12:36:06.268Z,33.95
2023-12-09T12:38:33.569Z,27.10
2023-12-09T12:41:00.208Z,30.35
2023-12-09T12:43:32.042Z,38.90
2023-12-09T12:46:00.018Z,27.50
2023-12-09T12:48:27.225Z,32.40
2023-12-09T12:50:54.571Z,27.08
2023-12-09T12:53:24.341Z,28.63
2023-12-09T12:55:52.905Z,32.15
2023-12-09T12:58:19.665Z,25.73
2023-12-09T13:00:51.034Z,30.73
2023-12-09T13:03:18.107Z,30.17
2023-12-09T13:05:44.903Z,32.42
2023-12-09T13:08:11.732Z,40.78
2023-12-09T13:10:38.421Z,28.73
2023-12-09T13:13:06.921Z,27.65
2023-12-09T13:15:34.440Z,27.00
2023-12-09T13:18:02.873Z,28.27
2023-12-09T13:20:30.243Z,27.48
2023-12-09T13:22:57.238Z,31.05
2023-12-09T13:25:23.931Z,29.05
2023-12-09T13:27:50.691Z,24.80
2023-12-09T13:30:17.381Z,26.58
2023-12-09T13:32:45.495Z,25.27
2023-12-09T13:35:12.192Z,24.88
2023-12-09T13:37:39.487Z,21.88
2023-12-09T13:40:08.378Z,18.30
2023-12-09T13:42:35.374Z,26.20
2023-12-09T13:45:02.224Z,20.85
2023-12-09T13:47:28.872Z,21.13
2023-12-09T13:49:56.380Z,23.00
2023-12-09T13:52:23.880Z,19.40
2023-12-09T13:54:52.097Z,23.90
2023-12-09T13:57:18.738Z,17.95
2023-12-09T13:59:45.304Z,21.48
2023-12-09T14:02:12.732Z,25.05
2023-12-09T14:04:39.580Z,23.55
2023-12-09T14:07:06.169Z,19.05
2023-12-09T14:09:32.768Z,18.33
2023-12-09T14:12:01.863Z,20.70
2023-12-09T14:14:30.625Z,17.50
2023-12-09T14:16:57.202Z,22.92
2023-12-09T14:19:25.532Z,17.90
2023-12-09T14:21:52.482Z,18.30
2023-12-09T14:24:19.414Z,21.00
2023-12-09T14:26:46.261Z,22.75
2023-12-09T14:29:12.865Z,24.58
2023-12-09T14:31:39.881Z,18.35
2023-12-09T14:34:07.298Z,18.52
2023-12-09T14:36:34.899Z,19.25
2023-12-09T14:39:01.916Z,17.85
2023-12-09T14:41:28.528Z,17.90
2023-12-09T14:43:59.786Z,18.60
2023-12-09T14:46:32.475Z,16.10
2023-12-09T14:48:59.205Z,19.10
2023-12-09T14:53:55.272Z,14.90
2023-12-09T14:56:22.039Z,24.40
2023-12-09T14:58:48.813Z,19.98
2023-12-09T15:01:15.467Z,16.77
2023-12-09T15:03:42.758Z,18.80
2023-12-09T15:06:09.656Z,20.48
2023-12-09T15:08:36.422Z,22.00
2023-12-09T15:11:03.244Z,16.80
2023-12-09T15:13:30.029Z,21.77
2023-12-09T15:15:56.709Z,22.65
2023-12-09T15:18:23.386Z,19.23
2023-12-09T15:20:52.216Z,24.25
2023-12-09T15:23:18.884Z,29.48
2023-12-09T15:25:46.009Z,24.58
2023-12-09T15:28:13.044Z,24.00
2023-12-09T15:30:40.615Z,21.65
2023-12-09T15:33:07.317Z,37.22
2023-12-09T15:35:35.592Z,24.55
2023-12-09T15:38:03.356Z,31.13
2023-12-09T15:40:29.883Z,23.23
2023-12-09T15:42:56.495Z,30.40
2023-12-09T15:45:23.127Z,32.25
2023-12-09T15:47:49.811Z,31.60
2023-12-09T15:50:16.431Z,28.73
2023-12-09T15:52:43.615Z,26.98
2023-12-09T15:55:10.468Z,31.83
2023-12-09T15:57:37.986Z,26.45
2023-12-09T16:00:06.332Z,29.13
2023-12-09T16:02:33.760Z,30.67
2023-12-09T16:05:00.425Z,31.75
2023-12-09T16:07:27.190Z,30.70
2023-12-09T16:09:58.027Z,30.25
2023-12-09T16:12:26.096Z,28.60
2023-12-09T16:14:55.163Z,34.88
2023-12-09T16:17:22.244Z,45.10
2023-12-09T16:19:49.059Z,33.25
2023-12-09T16:22:18.781Z,34.38
2023-12-09T16:24:47.347Z,30.48
2023-12-09T16:27:15.499Z,36.60
2023-12-09T16:29:42.073Z,34.92
2023-12-09T16:32:11.477Z,36.30
2023-12-09T16:34:39.073Z,37.35
2023-12-09T16:37:05.746Z,38.10
2023-12-09T16:39:32.492Z,38.22
2023-12-09T16:41:59.325Z,42.90
2023-12-09T16:44:26.006Z,40.45
2023-12-09T16:46:52.999Z,41.92
2023-12-09T16:49:19.751Z,43.35
2023-12-09T16:51:46.549Z,39.17
2023-12-09T16:54:13.303Z,43.78
2023-12-09T16:56:40.030Z,43.95
2023-12-09T16:59:12.072Z,48.42
2023-12-09T17:01:39.363Z,41.20
2023-12-09T17:04:06.735Z,42.13
2023-12-09T17:06:34.131Z,45.60
2023-12-09T17:09:01.087Z,42.22
2023-12-09T17:11:28.098Z,45.25
2023-12-09T17:13:54.901Z,35.95
2023-12-09T17:16:21.585Z,41.00
2023-12-09T17:18:48.533Z,41.13
2023-12-09T17:21:15.222Z,44.80
2023-12-09T17:23:42.167Z,44.88
2023-12-09T17:26:08.823Z,45.15
2023-12-09T17:28:35.472Z,41.15
2023-12-09T17:31:02.346Z,41.08
2023-12-09T17:33:29.080Z,43.03
2023-12-09T17:35:56.105Z,46.60
2023-12-09T17:38:22.749Z,43.30
2023-12-09T17:40:49.344Z,44.58
2023-12-09T17:43:16.069Z,39.88
2023-12-09T17:45:42.708Z,42.88
2023-12-09T17:48:09.417Z,51.28
2023-12-09T17:50:36.117Z,53.03
2023-12-09T17:53:02.676Z,49.45
2023-12-09T17:55:29.675Z,47.63
2023-12-09T17:57:58.245Z,46.67
2023-12-09T18:00:24.972Z,45.55
2023-12-09T18:02:51.606Z,52.90
2023-12-09T18:05:19.035Z,50.50
2023-12-09T18:07:45.601Z,53.40
2023-12-09T18:10:13.427Z,57.22
2023-12-09T18:12:41.063Z,51.75
2023-12-09T18:15:08.259Z,52.67
2023-12-09T18:17:35.152Z,52.40
2023-12-09T18:20:02.638Z,52.25
2023-12-09T18:22:29.358Z,54.78
2023-12-09T18:24:56.147Z,52.25
2023-12-09T18:27:23.004Z,54.90
2023-12-09T18:29:49.791Z,51.17
2023-12-09T18:32:17.782Z,58.92
2023-12-09T18:34:44.639Z,49.55
2023-12-09T18:37:12.641Z,48.97
2023-12-09T18:39:39.724Z,52.58
2023-12-09T18:42:06.781Z,53.05
2023-12-09T18:44:33.440Z,55.70
2023-12-09T18:47:00.068Z,56.13
2023-12-09T18:49:26.690Z,50.42
2023-12-09T18:51:53.718Z,52.83
2023-12-09T18:54:20.307Z,57.38
2023-12-09T18:56:47.114Z,50.63
2023-12-09T18:59:16.124Z,51.78
2023-12-09T19:01:44.023Z,58.47
2023-12-09T19:04:11.155Z,52.80
2023-12-09T19:06:45.785Z,55.83
2023-12-09T19:09:20.533Z,54.75
2023-12-09T19:11:47.266Z,49.72
2023-12-09T19:14:13.860Z,54.20
2023-12-09T19:16:41.559Z,52.75
2023-12-09T19:19:08.375Z,53.45
2023-12-09T19:21:39.213Z,53.80
2023-12-09T19:24:06.396Z,39.97
2023-12-09T19:26:34.383Z,50.47
2023-12-09T19:29:02.699Z,55.22
2023-12-09T19:31:29.666Z,53.67
2023-12-09T19:33:56.470Z,57.47
2023-12-09T19:36:23.211Z,50.13
2023-12-09T19:38:50.603Z,54.22
2023-12-09T19:41:17.164Z,54.33
2023-12-09T19:43:44.103Z,53.45
2023-12-09T19:46:10.708Z,55.75
2023-12-09T19:48:39.464Z,55.92
2023-12-09T19:51:06.438Z,50.55
2023-12-09T19:53:33.095Z,54.17
2023-12-09T19:55:59.900Z,55.83
2023-12-09T19:58:26.540Z,52.83
2023-12-09T20:00:53.291Z,48.78
2023-12-09T20:03:20.382Z,53.83
2023-12-09T20:05:47.035Z,52.67
2023-12-09T20:08:14.434Z,49.80
2023-12-09T20:10:42.448Z,48.03
2023-12-09T20:13:09.166Z,51.40
2023-12-09T20:15:35.826Z,50.85
2023-12-09T20:18:02.549Z,46.85
2023-12-09T20:20:30.372Z,51.47
2023-12-09T20:22:59.924Z,43.60
2023-12-09T20:25:26.535Z,45.15
2023-12-09T20:27:53.407Z,44.65
2023-12-09T20:30:20.277Z,47.63
2023-12-09T20:32:47.482Z,51.95
2023-12-09T20:35:14.959Z,47.72
2023-12-09T20:37:41.898Z,45.35
2023-12-09T20:40:08.966Z,50.22
2023-12-09T20:42:35.928Z,46.88
2023-12-09T20:45:04.930Z,44.67
2023-12-09T20:47:31.503Z,46.67
2023-12-09T20:49:58.147Z,50.35
2023-12-09T20:52:25.002Z,51.05
2023-12-09T20:54:51.741Z,45.03
2023-12-09T20:57:18.435Z,53.40
2023-12-09T20:59:47.480Z,50.42
2023-12-09T21:02:14.058Z,55.20
2023-12-09T21:04:45.226Z,53.20
2023-12-09T21:07:12.089Z,51.78
2023-12-09T21:09:41.361Z,52.60
2023-12-09T21:12:09.167Z,54.92
2023-12-09T21:14:35.827Z,52.35
2023-12-09T21:17:02.581Z,51.40
2023-12-09T21:19:32.208Z,57.45
2023-12-09T21:21:58.912Z,47.38
2023-12-09T21:24:25.506Z,52.70
2023-12-09T21:26:53.264Z,48.20
2023-12-09T21:29:20.885Z,55.33
2023-12-09T21:31:47.514Z,55.75
2023-12-09T21:34:14.674Z,51.95
2023-12-09T21:36:41.774Z,45.72
2023-12-09T21:39:09.983Z,50.63
2023-12-09T21:41:36.728Z,48.33
2023-12-09T21:44:03.474Z,46.95
2023-12-09T21:46:30.708Z,50.63
2023-12-09T21:48:57.949Z,44.92
2023-12-09T21:51:24.884Z,45.75
2023-12-09T21:53:51.670Z,45.42
2023-12-09T21:56:22.804Z,44.70
2023-12-09T21:58:50.343Z,45.30
2023-12-09T22:01:20.469Z,39.95
2023-12-09T22:03:47.916Z,38.08
2023-12-09T22:06:14.904Z,40.58
2023-12-09T22:08:42.678Z,37.60
2023-12-09T22:11:10.319Z,37.22
2023-12-09T22:13:36.979Z,42.47
2023-12-09T22:16:04.876Z,40.33
2023-12-09T22:18:31.719Z,37.08
2023-12-09T22:21:01.715Z,41.28
2023-12-09T22:23:28.559Z,36.15
2023-12-09T22:25:55.472Z,37.40
2023-12-09T22:28:22.590Z,33.08
2023-12-09T22:30:49.285Z,31.48
2023-12-09T22:33:16.006Z,34.72
2023-12-09T22:35:43.435Z,37.00
2023-12-09T22:38:10.018Z,32.30
2023-12-09T22:40:37.481Z,32.22
2023-12-09T22:43:04.290Z,36.55
2023-12-09T22:45:30.850Z,32.15
2023-12-09T22:47:57.662Z,32.20
2023-12-09T22:50:24.457Z,30.33
2023-12-09T22:52:51.084Z,37.58
2023-12-09T22:55:17.711Z,30.73
2023-12-09T22:57:45.628Z,32.25
2023-12-09T23:00:18.969Z,30.25
2023-12-09T23:02:45.511Z,30.02
2023-12-09T23:05:12.135Z,30.25
2023-12-09T23:07:38.661Z,30.55
2023-12-09T23:10:05.901Z,33.08
2023-12-09T23:12:32.809Z,27.60
2023-12-09T23:14:59.400Z,31.65
2023-12-09T23:17:26.001Z,27.25
2023-12-09T23:19:52.668Z,29.58
2023-12-09T23:22:19.219Z,27.33
2023-12-09T23:24:45.821Z,27.67
2023-12-09T23:27:12.409Z,28.75
2023-12-09T23:29:39.023Z,26.35
2023-12-09T23:32:06.668Z,30.13
2023-12-09T23:34:33.298Z,36.15
2023-12-09T23:36:59.899Z,30.48
2023-12-09T23:39:26.545Z,26.80
2023-12-09T23:41:53.780Z,29.98
2023-12-09T23:44:22.430Z,28.75
2023-12-09T23:46:49.008Z,33.63
2023-12-09T23:49:15.528Z,24.65
2023-12-09T23:51:42.121Z,29.40
2023-12-09T23:54:08.677Z,34.30
2023-12-09T23:56:35.247Z,25.80
2023-12-09T23:59:01.778Z,35.60
